Ottawa, Canada
Current Conditions -  °F | °C
As of 11:00 AM on Thursday 30 Oct 2014 (Local Time) from CYOW Reporting Station
Few Clouds Few Clouds  
Wind Chill: 38°   Ceiling: Unl
Heat Index: 43°   Visibility: 15mi
Dew Point: 32°   Wind: 8mph
Humidity: 66%   Direction: 310°NW
Pressure: 30.02"   Gusts: NA
Location:  45.42°N, 75.69°W
Report Text: CYOW 301500Z 31007KT 15SM FEW020 06/00 A3002 RMK SC2 SLP168
Loading
Personal Weather Stations






























Interactive Weather Map
Tropical Storm Tracking
New forecast layout! Learn more

10-Day Weather Forecast

Advertisements
Track Severe Weather on mobile